ADDS TAF Data INFO
IDs: Format: Raw Decoded Include METARs

Data at: 2043 UTC 15 Aug 2018

KPEQ 152035Z AUTO 09012G15KT 10SM SCT095 37/14 A2993 RMK AO2 LTG DSNT SW T03680138

KPEQ 151720Z 1518/1618 VRB05KT P6SM FEW120
  FM160000 11012G20KT P6SM FEW150
  FM160600 09008KT P6SM SKC